Time;durP1;ratioP1;P1;durP2;ratioP2;P2;SDS_P1;SDS_P2;PMS_P1;PMS_P2;Temp;Humidity;BMP_temperature;BMP_pressure;BME280_temperature;BME280_humidity;BME280_pressure;Samples;Min_cycle;Max_cycle;Signal;HPM_P1;HPM_P2
2023/09/29 00:01:35;;;;;;;66.80;48.90;;;14.50;99.90;;;14.96;100.00;100146.53;5005721;28;20097;-84
2023/09/29 00:04:05;;;;;;;69.38;49.67;;;14.60;99.90;;;15.03;100.00;100140.81;5018706;28;20037;-84
2023/09/29 00:06:32;;;;;;;65.57;49.92;;;14.70;99.90;;;14.97;100.00;100128.94;5015223;28;20044;-82
2023/09/29 00:09:00;;;;;;;70.90;52.47;;;14.70;99.90;;;15.05;100.00;100147.69;5018859;28;20030;-83
2023/09/29 00:11:27;;;;;;;62.10;48.33;;;14.70;99.90;;;15.07;100.00;100148.28;5014786;28;20037;-83
2023/09/29 00:13:53;;;;;;;60.35;46.33;;;14.70;99.90;;;15.02;100.00;100167.44;5013192;28;20132;-83
2023/09/29 00:16:18;;;;;;;58.17;45.15;;;14.60;99.90;;;14.99;100.00;100178.16;5023538;28;20121;-83
2023/09/29 00:18:44;;;;;;;56.83;45.47;;;14.60;99.90;;;14.92;100.00;100203.06;5013216;28;20121;-84
2023/09/29 00:21:11;;;;;;;56.95;43.35;;;14.50;99.90;;;14.90;100.00;100216.22;5013273;28;20026;-83
2023/09/29 00:23:37;;;;;;;59.25;45.83;;;14.40;99.90;;;14.81;100.00;100238.59;5019566;28;20029;-84
2023/09/29 00:26:03;;;;;;;58.42;45.47;;;14.30;99.90;;;14.69;100.00;100240.63;5012511;28;20044;-84
2023/09/29 00:28:28;;;;;;;57.55;43.53;;;14.30;99.90;;;14.70;100.00;100239.53;5022799;28;20042;-83
2023/09/29 00:30:54;;;;;;;52.42;41.25;;;14.30;99.90;;;14.71;100.00;100252.22;5022236;28;20036;-85
2023/09/29 00:33:21;;;;;;;52.55;41.00;;;14.10;99.90;;;14.68;100.00;100263.69;5014519;28;20482;-84
2023/09/29 00:35:47;;;;;;;51.53;39.47;;;14.10;99.90;;;14.58;100.00;100258.88;5026469;28;20041;-84
2023/09/29 00:38:13;;;;;;;57.35;44.22;;;14.00;99.90;;;14.52;100.00;100282.66;5016597;28;20049;-84
2023/09/29 00:40:39;;;;;;;59.35;44.47;;;14.10;99.90;;;14.53;100.00;100278.84;5013493;28;20410;-84
2023/09/29 00:43:06;;;;;;;61.53;46.75;;;14.10;99.90;;;14.53;100.00;100267.84;5012927;28;20056;-82
2023/09/29 00:45:32;;;;;;;66.07;47.22;;;14.10;99.90;;;14.63;100.00;100255.38;5017733;28;20045;-84
2023/09/29 00:48:10;;;;;;;71.30;48.55;;;14.10;99.90;;;14.59;100.00;100249.56;5002346;28;20049;-84
2023/09/29 00:50:38;;;;;;;64.28;47.85;;;14.10;99.90;;;14.56;100.00;100241.84;5019611;28;20030;-83
2023/09/29 00:53:11;;;;;;;60.88;46.47;;;14.10;99.90;;;14.49;100.00;100239.25;5012680;28;20037;-83
2023/09/29 00:55:41;;;;;;;71.40;49.65;;;14.10;99.90;;;14.47;100.00;100229.63;5016122;28;20037;-84
2023/09/29 00:58:08;;;;;;;61.83;45.20;;;14.00;99.90;;;14.49;100.00;100231.03;5020314;28;20120;-83
2023/09/29 01:00:40;;;;;;;62.08;45.22;;;14.00;99.90;;;14.45;100.00;100229.88;5022850;28;20042;-85
2023/09/29 01:03:09;;;;;;;83.88;54.55;;;14.00;99.90;;;14.51;100.00;100237.09;5012364;28;20092;-83
2023/09/29 01:05:44;;;;;;;81.65;53.55;;;14.00;99.90;;;14.61;100.00;100208.94;5011980;28;20034;-84
2023/09/29 01:08:17;;;;;;;85.95;54.33;;;14.10;99.90;;;14.68;100.00;100215.06;5026665;28;20106;-84
2023/09/29 01:10:44;;;;;;;81.70;53.83;;;14.10;99.90;;;14.76;100.00;100202.84;5017242;28;20393;-83
2023/09/29 01:13:10;;;;;;;79.93;52.47;;;14.30;99.90;;;14.76;100.00;100196.56;5012101;28;20535;-83
2023/09/29 01:15:38;;;;;;;75.60;52.10;;;14.30;99.90;;;14.80;100.00;100205.94;5011896;28;20291;-83
2023/09/29 01:18:06;;;;;;;74.50;51.72;;;14.30;99.90;;;14.75;100.00;100209.44;5026949;28;20110;-83
2023/09/29 01:20:32;;;;;;;76.65;52.85;;;14.30;99.90;;;14.75;100.00;100214.94;5023260;28;20401;-84
2023/09/29 01:23:03;;;;;;;88.30;54.45;;;14.20;99.90;;;14.82;100.00;100215.56;5012222;28;20049;-84
2023/09/29 01:25:29;;;;;;;74.80;49.05;;;14.20;99.90;;;14.81;100.00;100222.13;5016045;28;20551;-83
2023/09/29 01:27:57;;;;;;;78.07;52.05;;;14.20;99.90;;;14.84;100.00;100228.19;5029473;28;20572;-84
2023/09/29 01:30:25;;;;;;;74.15;50.40;;;14.30;99.90;;;14.86;100.00;100237.84;5018052;28;20029;-84
2023/09/29 01:32:53;;;;;;;89.00;55.85;;;14.30;99.90;;;14.90;100.00;100230.75;5010872;28;20092;-84
2023/09/29 01:35:27;;;;;;;78.80;51.60;;;14.30;99.90;;;14.95;100.00;100232.75;5013737;28;20037;-84
2023/09/29 01:37:55;;;;;;;80.00;51.58;;;14.30;99.90;;;14.97;100.00;100222.34;5027310;28;20053;-84
2023/09/29 01:40:23;;;;;;;81.50;54.70;;;14.40;99.90;;;14.95;100.00;100216.28;5011820;28;20030;-82
2023/09/29 01:42:50;;;;;;;73.35;49.60;;;14.40;99.90;;;14.95;100.00;100213.53;5018430;28;20029;-83
2023/09/29 01:45:17;;;;;;;73.20;48.78;;;14.40;99.90;;;14.93;100.00;100210.22;5011749;28;20121;-82
2023/09/29 01:47:46;;;;;;;71.05;48.28;;;14.40;99.90;;;14.94;100.00;100220.91;5019160;28;20025;-84
2023/09/29 01:50:17;;;;;;;74.97;50.13;;;14.40;99.90;;;14.96;100.00;100217.94;5013808;28;20069;-83
2023/09/29 01:52:44;;;;;;;76.13;50.40;;;14.40;99.90;;;14.89;100.00;100231.84;5011905;28;20049;-83
2023/09/29 01:55:19;;;;;;;71.68;48.40;;;14.30;99.90;;;14.87;100.00;100223.03;5015535;28;20409;-83
2023/09/29 01:57:49;;;;;;;75.22;51.22;;;14.30;99.90;;;14.92;100.00;100230.53;5025816;28;20092;-84
2023/09/29 02:00:20;;;;;;;73.88;50.53;;;14.30;99.90;;;14.92;100.00;100225.03;5027564;28;20040;-84
2023/09/29 02:02:48;;;;;;;82.35;54.15;;;14.40;99.90;;;14.94;100.00;100226.41;5028435;28;20059;-84
2023/09/29 02:05:18;;;;;;;88.90;55.42;;;14.40;99.90;;;15.01;100.00;100215.22;5013353;28;20034;-84
2023/09/29 02:07:45;;;;;;;84.88;55.08;;;14.50;99.90;;;15.13;100.00;100204.09;5010101;28;20402;-83
2023/09/29 02:10:11;;;;;;;81.10;53.83;;;14.60;99.90;;;15.18;100.00;100192.34;5024415;28;20120;-83
2023/09/29 02:12:55;;;;;;;85.65;57.30;;;14.60;99.90;;;15.30;100.00;100184.75;5019953;28;20049;-83
2023/09/29 02:15:22;;;;;;;81.90;54.10;;;14.80;99.90;;;15.43;100.00;100168.97;5019194;28;20674;-83
2023/09/29 02:17:48;;;;;;;81.75;54.58;;;14.90;99.90;;;15.52;100.00;100159.13;5031094;28;20112;-82
2023/09/29 02:20:36;;;;;;;75.45;52.05;;;15.00;99.90;;;15.48;100.00;100171.75;5015253;28;20105;-84
2023/09/29 02:23:02;;;;;;;66.05;45.45;;;15.00;99.90;;;15.56;100.00;100176.75;5016175;28;20049;-83
2023/09/29 02:25:29;;;;;;;63.00;45.50;;;15.00;99.90;;;15.71;100.00;100167.00;5030875;28;20026;-82
2023/09/29 02:27:57;;;;;;;57.30;41.25;;;15.20;99.90;;;15.84;100.00;100169.28;5028416;28;20042;-82
2023/09/29 02:30:25;;;;;;;52.08;39.38;;;15.30;99.90;;;15.98;100.00;100166.94;5015549;28;20034;-84
2023/09/29 02:32:54;;;;;;;;;;;15.40;99.90;;;16.08;100.00;100163.41;5027249;28;20052;-84
2023/09/29 02:35:20;;;;;;;46.03;35.00;;;15.50;99.90;;;16.22;100.00;100188.53;5014206;28;19917;-84
2023/09/29 02:37:47;;;;;;;41.60;33.38;;;15.60;99.90;;;16.33;100.00;100208.69;5028409;28;20302;-83
2023/09/29 02:40:16;;;;;;;42.77;32.43;;;15.70;99.90;;;16.45;100.00;100244.28;5015637;28;20124;-83
2023/09/29 02:42:46;;;;;;;38.33;30.40;;;15.80;99.90;;;16.52;100.00;100276.00;5020482;28;20041;-83
2023/09/29 02:45:14;;;;;;;32.53;27.58;;;15.80;99.90;;;16.56;100.00;100301.06;5015327;28;20029;-83
2023/09/29 02:47:41;;;;;;;32.40;27.27;;;15.90;99.90;;;16.69;100.00;100327.31;5014402;28;20041;-84
2023/09/29 02:50:12;;;;;;;29.02;25.70;;;15.90;99.90;;;16.71;100.00;100340.81;5024003;28;20041;-84
2023/09/29 02:52:40;;;;;;;28.60;25.05;;;16.00;99.90;;;16.75;100.00;100359.31;5024362;28;20054;-84
2023/09/29 02:55:12;;;;;;;28.80;23.85;;;16.10;99.90;;;16.80;100.00;100383.28;5015801;28;20030;-84
2023/09/29 02:57:40;;;;;;;27.70;23.02;;;16.10;99.90;;;16.93;100.00;100409.53;5016097;28;20026;-84
2023/09/29 03:00:11;;;;;;;27.17;21.67;;;16.20;99.90;;;16.93;100.00;100437.94;5014862;28;20076;-84
2023/09/29 03:02:37;;;;;;;24.90;20.83;;;16.20;99.90;;;16.99;100.00;100452.63;5014129;28;20081;-84
2023/09/29 03:05:08;;;;;;;22.10;19.75;;;16.30;99.90;;;17.03;100.00;100469.44;5015336;28;20492;-84
2023/09/29 03:07:34;;;;;;;22.27;19.70;;;16.30;99.90;;;17.09;100.00;100485.75;5011419;28;20042;-84
2023/09/29 03:10:00;;;;;;;20.52;18.33;;;16.40;99.90;;;17.15;100.00;100505.06;5029097;28;20047;-84
2023/09/29 03:12:26;;;;;;;26.23;17.55;;;16.50;99.90;;;17.16;100.00;100520.50;5014491;28;20041;-85
2023/09/29 03:14:52;;;;;;;21.50;17.25;;;16.50;99.90;;;17.19;100.00;100550.31;5018803;28;20045;-84
2023/09/29 03:17:19;;;;;;;18.58;16.00;;;16.60;99.90;;;17.31;100.00;100569.41;5013715;28;20037;-82
2023/09/29 03:19:44;;;;;;;19.95;15.68;;;16.70;99.90;;;17.30;100.00;100571.34;5017919;28;20045;-82
2023/09/29 03:22:13;;;;;;;23.40;15.63;;;16.80;99.90;;;17.39;100.00;100589.06;5026432;28;20743;-83
2023/09/29 03:24:39;;;;;;;17.23;14.68;;;16.80;99.90;;;17.43;100.00;100600.41;5012623;28;20042;-84
2023/09/29 03:27:05;;;;;;;18.38;14.85;;;16.90;99.90;;;17.42;100.00;100600.66;5022651;28;20042;-84
2023/09/29 03:29:33;;;;;;;17.67;15.13;;;16.90;99.90;;;17.45;100.00;100608.41;5025785;28;20560;-84
2023/09/29 03:31:59;;;;;;;16.80;14.77;;;;;;;17.46;100.00;100615.56;5023622;28;20060;-85
2023/09/29 03:34:25;;;;;;;17.02;15.18;;;;;;;17.45;100.00;100619.44;5021299;28;20048;-85
2023/09/29 03:36:52;;;;;;;18.50;15.10;;;;;;;17.44;100.00;100618.63;5022013;28;20048;-85
2023/09/29 03:39:18;;;;;;;17.05;15.25;;;;;;;17.40;100.00;100618.28;5016469;28;20128;-85
2023/09/29 03:41:45;;;;;;;16.75;14.80;;;;;;;17.44;100.00;100624.13;5014340;28;20060;-84
2023/09/29 03:44:14;;;;;;;18.58;15.13;;;;;;;17.40;100.00;100623.81;5018083;28;20053;-84
2023/09/29 03:46:40;;;;;;;18.05;14.73;;;;;;;17.40;100.00;100634.03;5013199;28;20034;-84
2023/09/29 03:49:06;;;;;;;18.08;14.75;;;;;;;17.37;100.00;100629.84;5020099;28;20042;-86
2023/09/29 03:51:33;;;;;;;17.70;14.77;;;;;;;17.40;100.00;100626.56;5026359;28;20038;-84
2023/09/29 03:53:59;;;;;;;18.27;15.57;;;;;;;17.40;100.00;100632.09;5033757;28;20065;-85
2023/09/29 03:56:25;;;;;;;18.10;14.45;;;;;;;17.37;100.00;100627.09;5038198;28;20038;-85
2023/09/29 03:58:55;;;;;;;19.20;14.90;;;;;;;17.37;100.00;100627.09;5030757;28;20037;-83
2023/09/29 04:01:22;;;;;;;16.17;14.00;;;;;;;17.36;100.00;100628.19;5032454;28;20045;-83
2023/09/29 04:03:48;;;;;;;18.27;15.25;;;;;;;17.34;100.00;100627.63;5017890;28;20085;-82
2023/09/29 04:06:14;;;;;;;19.27;15.32;;;;;;;17.34;100.00;100629.53;5019016;28;20044;-84
2023/09/29 04:08:41;;;;;;;15.57;13.98;;;;;;;17.36;100.00;100621.84;5013514;28;20112;-83
2023/09/29 04:11:07;;;;;;;15.23;13.63;;;;;;;17.39;100.00;100621.34;5017949;28;20056;-85
2023/09/29 04:13:33;;;;;;;17.17;14.23;;;;;;;17.35;100.00;100629.28;5024879;28;20120;-86
2023/09/29 04:16:06;;;;;;;17.48;12.80;;;;;;;17.40;100.00;100628.50;5022188;28;20103;-84
2023/09/29 04:18:32;;;;;;;16.88;12.48;;;;;;;17.40;100.00;100629.31;5016398;28;20038;-84
2023/09/29 04:21:01;;;;;;;15.90;12.68;;;;;;;17.40;100.00;100637.59;5025660;28;20532;-84
2023/09/29 04:23:27;;;;;;;13.75;11.93;;;;;;;17.38;100.00;100634.28;5018106;28;20533;-84
2023/09/29 04:25:53;;;;;;;13.35;10.93;;;;;;;17.46;100.00;100645.91;5021441;28;20404;-86
2023/09/29 04:28:19;;;;;;;15.63;11.63;;;;;;;17.50;100.00;100642.38;5019963;28;20053;-83
2023/09/29 04:30:46;;;;;;;13.85;11.07;;;;;;;17.53;100.00;100652.88;5014886;28;20093;-82
2023/09/29 04:33:12;;;;;;;14.80;10.57;;;;;;;17.52;100.00;100650.41;5012599;28;20401;-82
2023/09/29 04:35:38;;;;;;;13.63;10.88;;;;;;;17.50;100.00;100650.66;5013888;28;20034;-83
2023/09/29 04:38:04;;;;;;;13.98;10.35;;;;;;;17.51;100.00;100654.25;5013488;28;20038;-83
2023/09/29 04:40:31;;;;;;;13.55;9.82;;;;;;;17.47;100.00;100655.84;5015412;28;20041;-85
2023/09/29 04:42:57;;;;;;;12.80;9.80;;;;;;;17.50;100.00;100655.31;5015399;28;20453;-82
2023/09/29 04:45:23;;;;;;;13.07;9.73;;;;;;;17.45;100.00;100658.03;5023392;28;20037;-84
2023/09/29 04:47:51;;;;;;;12.83;10.00;;;;;;;17.37;100.00;100645.56;5022539;28;20029;-82
2023/09/29 04:50:17;;;;;;;13.32;9.85;;;;;;;17.35;100.00;100640.31;5024275;28;20034;-83
2023/09/29 04:52:43;;;;;;;14.88;10.07;;;;;;;17.35;100.00;100642.22;5014599;28;20080;-87
2023/09/29 04:55:10;;;;;;;13.52;9.68;;;;;;;17.34;100.00;100644.16;5026669;28;20045;-87
2023/09/29 04:57:36;;;;;;;10.98;9.35;;;;;;;17.31;100.00;100638.34;5028922;28;20045;-86
2023/09/29 05:00:03;;;;;;;11.40;8.85;;;;;;;17.33;100.00;100634.25;5033417;28;20052;-87
2023/09/29 05:02:30;;;;;;;12.55;8.25;;;;;;;17.33;100.00;100641.66;5029128;28;20042;-87
2023/09/29 05:04:57;;;;;;;13.85;8.88;;;;;;;17.34;100.00;100635.91;5031689;28;20052;-87
2023/09/29 05:07:24;;;;;;;11.50;8.05;;;;;;;17.38;100.00;100641.72;5035169;28;20034;-82
2023/09/29 05:09:50;;;;;;;10.57;7.47;;;;;;;17.43;100.00;100644.53;5013770;28;20038;-83
2023/09/29 05:12:16;;;;;;;10.20;7.53;;;;;;;17.50;100.00;100647.88;5014789;28;20204;-84
2023/09/29 05:14:42;;;;;;;9.55;7.65;;;;;;;17.56;100.00;100651.53;5024941;28;20489;-83
2023/09/29 05:17:08;;;;;;;9.25;7.47;;;;;;;17.56;100.00;100653.44;5023419;28;20041;-86
2023/09/29 05:19:35;;;;;;;9.80;6.82;;;;;;;17.61;100.00;100656.22;5025935;28;20038;-84
2023/09/29 05:22:01;;;;;;;10.65;7.40;;;;;;;17.62;100.00;100652.38;5019102;28;20030;-85
2023/09/29 05:24:27;;;;;;;10.07;6.90;;;;;;;17.64;100.00;100656.53;5023139;28;20097;-83
2023/09/29 05:26:53;;;;;;;9.60;6.93;;;;;;;17.67;100.00;100656.00;5026643;28;20037;-84
2023/09/29 05:29:19;;;;;;;11.80;6.95;;;;;;;17.68;100.00;100665.13;5019484;28;20030;-83
2023/09/29 05:31:46;;;;;;;12.07;7.32;;;;;;;17.65;100.00;100668.44;5016459;28;20358;-85
2023/09/29 05:34:12;;;;;;;9.65;7.25;;;;;;;17.66;100.00;100665.38;5015367;28;20038;-85
2023/09/29 05:36:38;;;;;;;8.82;6.63;;;;;;;17.68;100.00;100662.38;5022679;28;20033;-86
2023/09/29 05:39:04;;;;;;;8.82;7.25;;;;;;;17.68;100.00;100662.38;5012677;28;20042;-83
2023/09/29 05:41:31;;;;;;;10.15;6.82;;;;;;;17.61;100.00;100651.56;5013870;28;20034;-84
2023/09/29 05:43:57;;;;;;;9.52;7.13;;;;;;;17.61;100.00;100659.84;5022642;28;20051;-83
2023/09/29 05:46:23;;;;;;;11.50;7.15;;;;;;;17.66;100.00;100659.06;5018641;28;20038;-85
2023/09/29 05:48:49;;;;;;;10.82;6.65;;;;;;;17.68;100.00;100667.91;5014405;28;20488;-83
2023/09/29 05:51:15;;;;;;;10.50;7.07;;;;;;;17.71;100.00;100672.03;5025271;28;20048;-83
2023/09/29 05:53:41;;;;;;;10.82;7.28;;;;;;;17.64;100.00;100666.75;5030772;28;20042;-84
2023/09/29 05:56:12;;;;;;;10.32;7.05;;;;;;;17.69;100.00;100673.13;5028429;28;20029;-84
2023/09/29 05:58:39;;;;;;;11.07;6.88;;;;;;;17.72;100.00;100676.44;5020068;28;20041;-84
2023/09/29 06:01:12;;;;;;;12.63;6.97;;;;;;;17.67;100.00;100666.22;5014466;28;20544;-85
2023/09/29 06:03:38;;;;;;;11.68;6.78;;;;;;;17.66;100.00;100665.38;5014478;28;20436;-84
2023/09/29 06:06:05;;;;;;;10.55;6.80;;;;;;;17.62;100.00;100666.16;5025943;28;20092;-84
2023/09/29 06:08:31;;;;;;;9.98;7.18;;;;;;;17.62;100.00;100652.38;5022740;28;20056;-85
2023/09/29 06:10:57;;;;;;;10.85;6.97;;;;;;;17.59;100.00;100637.19;5015505;28;20046;-85
2023/09/29 06:13:24;;;;;;;10.60;6.88;;;;;;;17.63;100.00;100637.50;5022091;28;20037;-85
2023/09/29 06:15:50;;;;;;;9.38;7.38;;;;;;;17.71;100.00;100647.19;5014823;28;20077;-84
2023/09/29 06:18:16;;;;;;;11.75;7.03;;;;;;;17.71;100.00;100664.59;5026240;28;20050;-82
2023/09/29 06:20:46;;;;;;;11.18;6.97;;;;;;;17.73;100.00;100675.34;5035995;28;20029;-85
2023/09/29 06:23:12;;;;;;;9.98;6.85;;;;;;;17.80;100.00;100689.78;5016808;28;20049;-85
2023/09/29 06:25:38;;;;;;;11.38;7.47;;;;;;;17.83;100.00;100695.56;5036158;28;20048;-83
2023/09/29 06:28:04;;;;;;;13.10;7.60;;;;;;;17.85;100.00;100689.81;5023990;28;20033;-85
2023/09/29 06:30:31;;;;;;;10.32;7.28;;;;;;;17.83;100.00;100676.25;5033819;28;20077;-87
2023/09/29 06:32:57;;;;;;;11.73;7.10;;;;;;;17.82;100.00;100673.78;5025801;28;20026;-84
2023/09/29 06:35:24;;;;;;;9.52;7.00;;;;;;;17.84;100.00;100679.88;5032015;28;20286;-84
2023/09/29 06:37:51;;;;;;;8.95;6.63;;;;;;;17.84;100.00;100679.88;5032141;28;20030;-81
2023/09/29 06:40:17;;;;;;;8.63;6.90;;;;;;;17.88;100.00;100683.75;5038117;28;20021;-85
2023/09/29 06:42:45;;;;;;;14.38;7.15;;;;;;;17.85;100.00;100695.31;5031962;28;20053;-85
2023/09/29 06:45:13;;;;;;;9.63;6.80;;;;;;;17.91;100.00;100698.97;5053917;28;20056;-86
2023/09/29 06:47:39;;;;;;;8.70;6.45;;;;;;;17.93;100.00;100703.09;5038362;28;21645;-85
2023/09/29 06:50:10;;;;;;;8.32;6.60;;;;;;;17.93;100.00;100703.09;5030966;28;20038;-86
2023/09/29 06:52:37;;;;;;;8.55;6.57;;;;;;;17.98;100.00;100700.38;5034747;28;20042;-85
2023/09/29 06:55:04;;;;;;;11.50;7.30;;;;;;;17.98;100.00;100689.34;5031395;28;20084;-86
2023/09/29 06:57:30;;;;;;;11.35;7.75;;;;;;;17.96;100.00;100674.97;5035046;28;20056;-85
2023/09/29 06:59:56;;;;;;;9.82;7.38;;;;;;;17.93;100.00;100658.13;5034226;28;20038;-85
2023/09/29 07:02:22;;;;;;;10.20;6.70;;;;;;;17.95;100.00;100659.50;5035049;28;20064;-86
2023/09/29 07:04:48;;;;;;;7.78;6.18;;;;;;;18.01;100.00;100671.44;5040969;28;20053;-84
2023/09/29 07:07:15;;;;;;;10.18;6.20;;;;;;;18.10;100.00;100678.13;5040445;28;20037;-86
2023/09/29 07:09:42;;;;;;;11.55;6.35;;;;;;;18.11;100.00;100676.22;5037931;28;20061;-85
2023/09/29 07:12:08;;;;;;;8.27;6.25;;;;;;;18.16;100.00;100664.34;5030551;28;20057;-85
2023/09/29 07:14:34;;;;;;;9.90;6.45;;;;;;;18.15;100.00;100654.41;5026786;28;20081;-84
2023/09/29 07:17:02;;;;;;;9.85;6.63;;;;;;;18.25;100.00;100660.00;5023119;28;20026;-86
2023/09/29 07:19:30;;;;;;;9.27;6.25;;;;;;;18.29;100.00;100665.78;5018170;28;20029;-86
2023/09/29 07:21:56;;;;;;;9.35;6.15;;;;;;;18.40;100.00;100656.47;5029904;28;20350;-84
2023/09/29 07:24:23;;;;;;;10.75;7.00;;;;;;;18.46;100.00;100641.59;5021943;28;20040;-85
2023/09/29 07:26:49;;;;;;;11.98;7.47;;;;;;;18.48;100.00;100633.84;5033655;28;20081;-82
2023/09/29 07:29:16;;;;;;;11.52;6.95;;;;;;;18.59;100.00;100636.66;5035676;28;20037;-85
2023/09/29 07:31:47;;;;;;;9.02;7.00;;;;;;;18.65;100.00;100660.44;5036870;28;20076;-85
2023/09/29 07:34:15;;;;;;;10.30;6.22;;;;;;;18.66;100.00;100654.63;5046575;28;20052;-86
2023/09/29 07:36:44;;;;;;;9.13;6.45;;;;;;;18.71;100.00;100656.59;5031908;28;20057;-86
2023/09/29 07:39:15;;;;;;;10.60;6.55;;;;;;;18.69;100.00;100654.09;5030223;28;20037;-87
2023/09/29 07:41:41;;;;;;;9.55;6.70;;;;;;;18.67;100.00;100664.56;5027666;28;20446;-87
2023/09/29 07:44:08;;;;;;;12.05;6.35;;;;;;;18.71;100.00;100681.47;5030238;28;20557;-88
2023/09/29 07:46:38;;;;;;;9.20;6.35;;;;;;;18.76;100.00;100711.06;5025798;28;20037;-85
2023/09/29 07:49:04;;;;;;;8.95;6.38;;;;;;;18.80;100.00;100718.50;5026772;28;20061;-89
2023/09/29 07:51:32;;;;;;;12.82;6.20;;;;;;;18.86;100.00;100721.31;5044814;28;20030;-88
2023/09/29 07:53:58;;;;;;;;;;;;;;;18.90;100.00;100731.53;5025192;28;20046;-88
2023/09/29 07:56:24;;;;;;;8.75;6.60;;;;;;;18.82;100.00;100713.53;5022598;28;19968;-87
2023/09/29 07:58:52;;;;;;;8.45;6.75;;;;;;;18.75;100.00;100673.47;5024106;28;20062;-87
2023/09/29 08:01:18;;;;;;;11.77;7.32;;;;;;;18.69;100.00;100648.56;5026096;28;20041;-89
2023/09/29 08:03:44;;;;;;;12.15;8.20;;;;;;;18.69;100.00;100639.44;5032379;28;20109;-90
2023/09/29 08:06:10;;;;;;;12.70;7.68;;;;;;;18.68;100.00;100640.56;5028256;28;20394;-90
2023/09/29 08:08:36;;;;;;;10.05;7.38;;;;;;;18.73;100.00;100637.00;5023200;28;20038;-88
2023/09/29 08:11:03;;;;;;;11.20;7.45;;;;;;;18.76;100.00;100626.19;5026830;28;20091;-90
2023/09/29 08:13:29;;;;;;;11.82;7.97;;;;;;;18.79;100.00;100603.53;5014122;28;20112;-87
2023/09/29 08:15:55;;;;;;;11.52;8.38;;;;;;;18.85;100.00;100595.28;5028531;28;20143;-89
2023/09/29 08:18:21;;;;;;;10.23;8.45;;;;;;;18.78;100.00;100590.03;5027125;28;20065;-88
2023/09/29 08:20:53;;;;;;;12.35;8.40;;;;;;;18.85;100.00;100590.56;5027000;28;20096;-87
2023/09/29 08:23:19;;;;;;;11.07;8.30;;;;;;;18.89;100.00;100597.22;5033348;28;20053;-89
2023/09/29 08:25:46;;;;;;;11.32;8.45;;;;;;;18.93;100.00;100620.44;5030884;28;20481;-88
2023/09/29 08:28:13;;;;;;;11.40;7.65;;;;;;;19.13;100.00;100629.88;5017506;28;20034;-89
2023/09/29 08:30:40;;;;;;;11.45;7.28;;;;;;;19.23;100.00;100654.81;5026951;28;20103;-87
2023/09/29 08:33:06;;;;;;;12.05;8.20;;;;;;;19.35;100.00;100665.56;5022856;28;20034;-89
2023/09/29 08:35:32;;;;;;;11.10;7.72;;;;;;;19.50;100.00;100675.84;5030374;28;20049;-88
2023/09/29 08:37:59;;;;;;;12.35;7.05;;;;;;;19.69;100.00;100686.34;5024791;28;20113;-87
2023/09/29 08:40:25;;;;;;;10.65;7.40;;;;;;;19.79;100.00;100699.34;5026757;28;20030;-88
2023/09/29 08:42:51;;;;;;;8.55;6.72;;;;;;;19.96;100.00;100707.38;5033329;28;20037;-89
2023/09/29 08:45:19;;;;;;;9.43;7.13;;;;;;;20.05;100.00;100715.94;5030893;28;20065;-90
2023/09/29 08:47:47;;;;;;;;;;;;;;;20.16;100.00;100717.59;5029002;28;20176;-89
2023/09/29 08:50:16;;;;;;;11.75;7.25;;;;;;;20.31;100.00;100713.97;5022792;28;19917;-88
2023/09/29 08:52:44;;;;;;;10.82;7.22;;;;;;;20.40;100.00;100705.88;5031353;28;20037;-88
2023/09/29 08:55:14;;;;;;;11.50;7.50;;;;;;;20.32;100.00;100721.16;5028015;28;20076;-90
2023/09/29 08:57:44;;;;;;;9.73;7.18;;;;;;;20.43;100.00;100730.28;5032990;28;20041;-89
2023/09/29 09:00:12;;;;;;;9.43;7.07;;;;;;;20.64;100.00;100722.72;5031384;28;20049;-88
2023/09/29 09:02:45;;;;;;;10.02;6.57;;;;;;;20.64;100.00;100733.81;5029000;28;20077;-89
2023/09/29 09:05:14;;;;;;;10.82;7.25;;;;;;;20.72;100.00;100735.19;5035884;28;20381;-90
2023/09/29 09:07:41;;;;;;;9.93;7.18;;;;;;;20.84;100.00;100735.69;5031258;28;20033;-90
2023/09/29 09:10:09;;;;;;;8.38;7.20;;;;;;;20.81;100.00;100747.34;5031360;28;20038;-91
2023/09/29 09:12:37;;;;;;;10.73;6.97;;;;;;;20.82;100.00;100740.69;5028094;28;20048;-91
2023/09/29 09:15:05;;;;;;;8.93;6.25;;;;;;;20.94;100.00;100736.75;5035970;28;20088;-89
2023/09/29 09:17:32;;;;;;;10.07;6.53;;;;;;;20.96;100.00;100731.78;5034183;28;20038;-89
2023/09/29 09:19:59;;;;;;;9.25;6.82;;;;;;;21.12;100.00;100729.75;5028179;28;20085;-86
2023/09/29 09:22:27;;;;;;;10.88;7.28;;;;;;;21.34;100.00;100721.00;5032964;28;20033;-89
2023/09/29 09:25:04;;;;;;;9.65;6.45;;;;;;;21.50;100.00;100729.22;5023285;28;20050;-88
2023/09/29 09:27:40;;;;;;;8.93;6.30;;;;;;;21.60;100.00;100740.25;5024284;28;20038;-88
2023/09/29 09:30:19;;;;;;;8.73;6.32;;;;;;;21.65;100.00;100739.41;5043520;28;20087;-85
2023/09/29 09:32:46;;;;;;;11.65;6.53;;;;;;;21.68;100.00;100742.41;5033262;28;20049;-87
2023/09/29 09:35:22;;;;;;;9.65;6.03;;;;;;;21.73;100.00;100740.72;5033747;28;20049;-86
2023/09/29 09:37:51;;;;;;;6.38;5.07;;;;;;;21.92;100.00;100744.44;5038301;28;20037;-86
2023/09/29 09:40:18;;;;;;;8.68;5.28;;;;;;;21.99;100.00;100749.66;5030821;28;20018;-88
2023/09/29 09:42:49;;;;;;;8.63;5.70;;;;;;;21.95;100.00;100746.63;5010863;28;20081;-86
2023/09/29 09:45:15;;;;;;;7.28;5.75;;;;;;;21.92;100.00;100741.66;5019499;28;20049;-88
2023/09/29 09:47:43;;;;;;;10.00;5.47;;;;;;;21.89;100.00;100728.38;5031683;28;20038;-89
2023/09/29 09:50:14;;;;;;;8.27;5.55;;;;;;;21.88;100.00;100737.81;5026453;28;20474;-85
2023/09/29 09:52:42;;;;;;;9.18;5.15;;;;;;;21.85;100.00;100741.19;5028757;28;20100;-86
2023/09/29 09:55:11;;;;;;;8.85;5.28;;;;;;;21.80;100.00;100741.22;5019849;28;20061;-85
2023/09/29 09:57:42;;;;;;;10.07;4.60;;;;;;;21.88;100.00;100731.41;5024599;28;20038;-83
2023/09/29 10:00:11;;;;;;;9.00;4.50;;;;;;;21.84;100.00;100736.75;5026733;28;20046;-83
2023/09/29 10:02:44;;;;;;;7.93;4.57;;;;;;;21.99;100.00;100728.25;5021735;28;20052;-83
2023/09/29 10:05:22;;;;;;;8.63;4.38;;;;;;;22.21;100.00;100726.13;5014417;28;20501;-80
2023/09/29 10:07:53;;;;;;;8.50;4.10;;;;;;;22.20;100.00;100730.03;5019883;28;20038;-85
2023/09/29 10:10:40;;;;;;;8.27;3.90;;;;;;;22.12;100.00;100732.31;5031326;28;20037;-83
2023/09/29 10:13:11;;;;;;;7.35;3.85;;;;;;;22.02;100.00;100734.38;5034672;28;20048;-85
2023/09/29 10:15:39;;;;;;;5.75;3.85;;;;;;;22.12;100.00;100729.53;5022165;28;20092;-85
2023/09/29 10:18:18;;;;;;;;;;;;;;;22.38;100.00;100723.69;5021463;28;20034;-83
2023/09/29 10:20:55;;;;;;;7.70;4.10;;;;;;;22.77;100.00;100726.63;5018380;28;19935;-84
2023/09/29 10:23:25;;;;;;;5.60;3.50;;;;;;;23.06;100.00;100717.34;5036581;28;20049;-86
2023/09/29 10:26:02;;;;;;;5.28;3.35;;;;;;;23.24;100.00;100715.69;5019853;28;20034;-85
2023/09/29 10:28:37;;;;;;;7.13;3.00;;;;;;;23.49;100.00;100719.25;5015948;28;20038;-82
2023/09/29 10:31:09;;;;;;;5.80;3.20;;;;;;;23.61;100.00;100718.78;5015551;28;20044;-83
2023/09/29 10:33:53;;;;;;;5.07;3.28;;;;;;;23.93;100.00;100725.47;5023910;28;20060;-84
2023/09/29 10:36:24;;;;;;;5.47;3.15;;;;;;;23.84;100.00;100720.59;5032487;28;20029;-84
2023/09/29 10:38:51;;;;;;;5.60;3.08;;;;;;;24.21;100.00;100729.16;5020276;28;20041;-82
2023/09/29 10:41:24;;;;;;;;;;;;;;;25.27;100.00;100728.38;5043858;28;20094;-82
2023/09/29 10:43:51;;;;;;;4.70;2.78;;;;;;;26.28;100.00;100724.50;5025127;28;19917;-84
2023/09/29 10:46:22;;;;;;;7.25;3.35;;;;;;;26.68;100.00;100726.47;5021325;28;20022;-85
2023/09/29 10:48:51;;;;;;;5.78;3.03;;;;;;;26.88;100.00;100732.59;5018765;28;20565;-83